Latest Coastal Weather Observations for Low Head

IDT60701

Issued at 6:22 pm EST Friday 28 April 2017 (issued every 10 minutes, with the page automatically refreshed every 10 minutes)

About coastal observations | Map of coastal stations | Coastal observations for TAS | Marine services | Other Formats
Station Details ID: 091293 Name: LOW HEAD Lat: -41.05 Lon: 146.79 Height: 3.0 m
Data from the previous 72 hours. | See also: Recent months at Low Head
Date/Time
EST
Temp
°C
Wind Pressure Rain since
9am
mm
Weather Cloud Vis
km
Sea
Height
m
Swell
Dir  Spd
kts
Gust
kts
hPa Trend Height
m
Period
s
Dir
28/06:00pm 16.1 WNW 23 27 1014.5 - 0.0 - - - - - - -
28/05:30pm 16.5 WNW 26 30 1014.5 - 0.0 - - - - - - -
28/05:00pm 16.6 WNW 24 29 1014.3 - 0.0 - - - - - - -
28/04:30pm 16.9 WNW 22 28 1014.3 - 0.0 - - - - - - -
28/04:00pm 16.9 WNW 23 27 1014.4 - 0.0 - - - - - - -
28/03:30pm 17.1 WNW 23 27 1014.6 - 0.0 - - - - - - -
28/03:00pm 16.9 WNW 25 28 1014.5 - 0.0 - - - - - - -
28/02:30pm 16.8 WNW 23 27 1014.7 - 0.0 - - - - - - -
28/02:00pm 16.5 WNW 24 29 1014.8 - 0.0 - - - - - - -
28/01:30pm 16.2 WNW 24 27 1015.3 - 0.0 - - - - - - -
28/01:00pm 16.2 WNW 23 27 1015.5 - 0.0 - - - - - - -
28/12:30pm 16.3 WNW 23 28 1016.0 - 0.0 - - - - - - -
28/12:00pm 16.0 WNW 22 25 1016.6 - 0.0 - - - - - - -
28/11:30am 16.0 WNW 23 27 1017.0 - 0.0 - - - - - - -
28/11:00am 15.9 WNW 21 25 1017.2 - 0.0 - - - - - - -
28/10:30am 15.1 W 22 25 1017.4 - 0.0 - - - - - - -
28/10:00am 15.3 WNW 22 26 1017.1 - 0.0 - - - - - - -
28/09:30am 15.5 WNW 23 26 1017.3 - 0.0 - - - - - - -
28/09:00am 15.3 WNW 23 26 1017.4 - 0.0 - - - - - - -
28/08:30am 15.1 WNW 23 26 1017.0 - 0.0 - - - - - - -
28/08:00am 15.0 WNW 22 26 1016.8 - 0.0 - - - - - - -
28/07:30am 14.9 W 21 25 1016.7 - 0.0 - - - - - - -
28/07:00am 14.7 WNW 22 26 1016.3 - 0.0 - - - - - - -
28/06:30am 15.0 WNW 21 25 1016.3 - 0.0 - - - - - - -
28/06:00am 14.9 WNW 21 24 1016.3 - 0.0 - - - - - - -
28/05:30am 15.1 W 20 24 1016.0 - 0.0 - - - - - - -
28/05:00am 15.0 WNW 20 23 1016.0 - 0.0 - - - - - - -
28/04:30am 14.9 WNW 21 25 1015.6 - 0.0 - - - - - - -
28/04:00am 15.1 WNW 20 24 1015.8 - 0.0 - - - - - - -
28/03:30am 15.0 WNW 20 23 1015.8 - 0.0 - - - - - - -
28/03:00am 15.1 WNW 20 25 1016.1 - 0.0 - - - - - - -
28/02:30am 15.1 WNW 21 25 1016.3 - 0.0 - - - - - - -
28/02:00am 15.2 WNW 19 23 1016.4 - 0.0 - - - - - - -
28/01:30am 14.9 WNW 20 24 1016.4 - 0.0 - - - - - - -
28/01:00am 15.2 WNW 20 24 1016.7 - 0.0 - - - - - - -
28/12:30am 15.0 WNW 20 25 1016.6 - 0.0 - - - - - - -
28/12:00am 15.0 WNW 22 26 1016.6 - 0.0 - - - - - - -
 
Date/Time
EST
Temp
°C
Wind Pressure Rain since
9am
mm
Weather Cloud Vis
km
Sea
Height
m
Swell
Dir  Spd
kts
Gust
kts
hPa Trend Height
m
Period
s
Dir
27/11:30pm 14.9 WNW 24 28 1016.6 - 0.0 - - - - - - -
27/11:00pm 14.9 W 21 25 1017.2 - 0.0 - - - - - - -
27/10:30pm 14.8 W 20 25 1017.4 - 0.0 - - - - - - -
27/10:00pm 14.5 W 19 22 1017.4 - 0.0 - - - - - - -
27/09:30pm 14.2 WNW 22 25 1017.4 - 0.0 - - - - - - -
27/09:00pm 14.1 WNW 21 25 1017.4 - 0.0 - - - - - - -
27/08:30pm 13.7 WNW 19 23 1017.6 - 0.0 - - - - - - -
27/08:00pm 13.9 W 18 21 1018.0 - 0.0 - - - - - - -
27/07:30pm 13.6 W 18 23 1018.1 - 0.0 - - - - - - -
27/07:00pm 13.6 WNW 18 22 1018.2 - 0.0 - - - - - - -
27/06:30pm 13.5 WNW 15 20 1018.1 - 0.0 - - - - - - -
27/06:00pm 13.5 W 16 21 1018.2 - 0.0 - - - - - - -
27/05:30pm 13.6 W 17 20 1018.2 - 0.0 - - - - - - -
27/05:00pm 13.8 W 18 22 1018.0 - 0.0 - - - - - - -
27/04:30pm 13.9 WSW 17 20 1017.8 - 0.0 - - - - - - -
27/04:00pm 14.0 WSW 17 21 1017.9 - 0.0 - - - - - - -
27/03:30pm 14.3 W 17 20 1017.9 - 0.0 - - - - - - -
27/03:00pm 13.6 W 10 13 1017.6 - 0.0 - - - - - - -
27/02:30pm 13.2 W 5 7 1017.6 - 0.0 - - - - - - -
27/02:00pm 13.1 WSW 11 13 1018.3 - 0.0 - - - - - - -
27/01:30pm 12.7 W 15 18 1018.6 - 0.0 - - - - - - -
27/01:00pm 12.7 W 14 17 1018.9 - 0.0 - - - - - - -
27/12:30pm 12.8 SW 12 16 1019.3 - 0.0 - - - - - - -
27/12:00pm 12.3 SW 13 16 1019.8 - 0.0 - - - - - - -
27/11:30am 11.9 W 11 17 1019.9 - 0.0 - - - - - - -
27/11:00am 11.7 WSW 8 11 1019.8 - 0.0 - - - - - - -
27/10:30am 11.4 SW 10 13 1020.1 - 0.0 - - - - - - -
27/10:00am 10.4 SSW 4 5 1020.0 - 0.0 - - - - - - -
27/09:30am 9.8 SSW 6 8 1020.2 - 0.0 - - - - - - -
27/09:00am 8.7 SSE 6 7 1020.2 - 0.0 - - - - - - -
27/08:30am 7.9 SSE 7 8 1020.4 - 0.0 - - - - - - -
27/08:00am 7.6 S 8 10 1020.2 - 0.0 - - - - - - -
27/07:30am 7.3 S 9 11 1020.0 - 0.0 - - - - - - -
27/07:00am 7.2 S 7 8 1019.7 - 0.0 - - - - - - -
27/06:30am 5.8 SSE 5 7 1019.6 - 0.0 - - - - - - -
27/06:00am 6.1 SSE 5 6 1019.4 - 0.0 - - - - - - -
27/05:30am 7.4 S 9 10 1019.2 - 0.0 - - - - - - -
27/05:00am 7.5 S 9 10 1018.8 - 0.0 - - - - - - -
27/04:30am 8.2 SSW 10 11 1018.3 - 0.0 - - - - - - -
27/04:00am 8.4 SSW 11 14 1018.0 - 0.0 - - - - - - -
27/03:30am 8.3 SSW 12 14 1017.9 - 0.0 - - - - - - -
27/03:00am 8.2 SSW 12 15 1018.2 - 0.0 - - - - - - -
27/02:30am 8.0 SSW 10 12 1018.2 - 0.0 - - - - - - -
27/02:00am 8.2 S 9 11 1018.2 - 0.0 - - - - - - -
27/01:30am 7.9 S 10 13 1018.4 - 0.0 - - - - - - -
27/01:00am 8.3 S 11 13 1018.0 - 0.0 - - - - - - -
27/12:30am 8.7 S 10 12 1017.8 - 0.0 - - - - - - -
27/12:00am 8.5 SSW 11 13 1017.7 - 0.0 - - - - - - -
 
Date/Time
EST
Temp
°C
Wind Pressure Rain since
9am
mm
Weather Cloud Vis
km
Sea
Height
m
Swell
Dir  Spd
kts
Gust
kts
hPa Trend Height
m
Period
s
Dir
26/11:30pm 9.0 SSW 13 15 1017.1 - 0.0 - - - - - - -
26/11:00pm 8.5 SSW 10 12 1016.9 - 0.0 - - - - - - -
26/10:30pm 8.7 SSW 10 12 1016.9 - 0.0 - - - - - - -
26/10:00pm 9.0 S 10 13 1016.8 - 0.0 - - - - - - -
26/09:30pm 8.8 S 9 15 1016.5 - 0.0 - - - - - - -
26/09:00pm 9.7 S 13 17 1016.1 - 0.0 - - - - - - -
26/08:30pm 10.1 SSE 15 20 1015.3 - 0.0 - - - - - - -
26/08:00pm 10.2 SSE 18 22 1014.8 - 0.0 - - - - - - -
26/07:30pm 10.0 SSE 13 18 1014.4 - 0.0 - - - - - - -
26/07:00pm 10.4 SSE 13 18 1013.8 - 0.0 - - - - - - -
26/06:30pm 11.3 S 10 12 1013.0 - 0.0 - - - - - - -
26/06:00pm 11.9 S 13 16 1012.3 - 0.0 - - - - - - -
26/05:30pm 12.6 SSW 14 15 1011.6 - 0.0 - - - - - - -
26/05:00pm 13.4 SSW 13 15 1010.7 - 0.0 - - - - - - -
26/04:30pm 12.9 SSE 5 8 1010.1 - 0.0 - - - - - - -
26/04:00pm 13.3 SE 7 10 1009.6 - 0.0 - - - - - - -
26/03:30pm 14.1 SSE 8 11 1009.1 - 0.0 - - - - - - -
26/03:00pm 14.4 S 8 12 1008.7 - 0.0 - - - - - - -
26/02:30pm 13.9 SW 17 20 1008.3 - 0.0 - - - - - - -
26/02:00pm 13.9 SW 15 19 1007.9 - 0.0 - - - - - - -
26/01:30pm 13.8 SSW 13 17 1007.8 - 0.0 - - - - - - -
26/01:00pm 12.8 SSW 14 19 1007.5 - 0.0 - - - - - - -
26/12:30pm 13.2 SSW 21 25 1007.3 - 0.0 - - - - - - -
26/12:00pm 13.4 SSW 17 21 1007.1 - 0.0 - - - - - - -
26/11:30am 12.7 SSW 20 24 1006.9 - 0.0 - - - - - - -
26/11:00am 12.8 SSW 19 24 1006.7 - 0.0 - - - - - - -
26/10:30am 12.7 SSW 21 25 1006.2 - 0.0 - - - - - - -
26/10:00am 12.3 SSW 18 23 1006.1 - 0.0 - - - - - - -
26/09:30am 12.0 SSW 13 15 1005.8 - 0.0 - - - - - - -
26/09:00am 12.4 SSW 13 16 1005.2 - 0.0 - - - - - - -
26/08:30am 11.7 SSW 12 15 1004.6 - 0.0 - - - - - - -
26/08:00am 11.9 SSW 11 13 1003.9 - 0.0 - - - - - - -
26/07:30am 11.5 S 13 15 1002.9 - 0.0 - - - - - - -
26/07:00am 11.5 S 9 11 1002.5 - 0.0 - - - - - - -
26/06:30am 11.8 S 10 12 1002.1 - 0.0 - - - - - - -
26/06:00am 11.5 SW 11 15 1001.4 - 0.0 - - - - - - -
26/05:30am 12.1 S 14 17 1000.6 - 0.0 - - - - - - -
26/05:00am 12.2 SSE 11 13 999.9 - 0.0 - - - - - - -
26/04:30am 12.4 S 11 12 999.7 - 0.0 - - - - - - -
26/04:00am 12.4 SSW 9 11 999.3 - 0.0 - - - - - - -
26/03:30am 12.6 SW 8 9 999.3 - 0.0 - - - - - - -
26/03:00am 13.7 SW 8 9 999.1 - 0.0 - - - - - - -
26/02:30am 13.9 WSW 7 11 999.1 - 0.0 - - - - - - -
26/02:00am 13.7 SW 6 8 999.0 - 0.0 - - - - - - -
26/01:30am 13.7 WSW 8 13 999.2 - 0.0 - - - - - - -
26/01:00am 14.0 W 9 15 999.5 - 0.0 - - - - - - -
26/12:30am 13.7 W 10 13 999.5 - 0.0 - - - - - - -
26/12:00am 13.5 WNW 12 15 999.9 - 0.0 - - - - - - -
 
Date/Time
EST
Temp
°C
Wind Pressure Rain since
9am
mm
Weather Cloud Vis
km
Sea
Height
m
Swell
Dir  Spd
kts
Gust
kts
hPa Trend Height
m
Period
s
Dir
25/11:30pm 14.1 WNW 15 18 1000.5 - 0.0 - - - - - - -
25/11:00pm 14.7 WNW 13 15 1000.5 - 0.0 - - - - - - -
25/10:30pm 14.5 WNW 13 16 1000.4 - 0.0 - - - - - - -
25/10:00pm 15.0 WNW 14 17 1000.9 - 0.0 - - - - - - -
25/09:30pm 15.0 W 14 17 1001.3 - 0.0 - - - - - - -
25/09:00pm 15.2 W 18 21 1001.5 - 0.0 - - - - - - -
25/08:30pm 15.2 W 18 22 1001.7 - 0.0 - - - - - - -
25/08:00pm 15.5 W 20 23 1001.7 - 0.0 - - - - - - -
25/07:30pm 15.6 W 21 25 1001.5 - 0.0 - - - - - - -
25/07:00pm 15.6 WNW 22 25 1001.5 - 0.0 - - - - - - -
25/06:30pm 15.8 WNW 21 25 1001.6 - 0.0 - - - - - - -

Other Formats:

Comma delimited format used in spreadsheet applications
http://www.bom.gov.au/fwo/IDT60701/IDT60701.95964.axf

JavaScript Object Notation format (JSON) in row-major order
http://www.bom.gov.au/fwo/IDT60701/IDT60701.95964.json